Time;durP1;ratioP1;P1;durP2;ratioP2;P2;SDS_P1;SDS_P2;PMS_P1;PMS_P2;Temp;Humidity;BMP_temperature;BMP_pressure;BME280_temperature;BME280_humidity;BME280_pressure;Samples;Min_cycle;Max_cycle;Signal;HPM_P1;HPM_P2
2021/08/23 00:00:53;;;;;;;21.48;12.80;;;;;;;;;;5107260;28;20032;-84
2021/08/23 00:03:19;;;;;;;24.45;14.13;;;;;;;;;;5111571;28;20105;-84
2021/08/23 00:05:46;;;;;;;20.80;13.40;;;;;;;;;;5116950;28;20032;-84
2021/08/23 00:08:12;;;;;;;18.65;13.07;;;;;;;;;;5116879;28;20048;-85
2021/08/23 00:10:39;;;;;;;26.08;13.57;;;;;;;;;;5106579;28;20063;-86
2021/08/23 00:13:06;;;;;;;22.15;13.45;;;;;;;;;;5105152;28;20152;-84
2021/08/23 00:15:32;;;;;;;19.30;13.50;;;;;;;;;;5102784;28;20048;-85
2021/08/23 00:17:59;;;;;;;20.02;13.88;;;;;;;;;;5104467;28;20052;-84
2021/08/23 00:20:41;;;;;;;20.55;13.27;;;;;;;;;;5103248;28;20066;-85
2021/08/23 00:23:12;;;;;;;20.67;14.07;;;;;;;;;;5093951;28;20296;-85
2021/08/23 00:25:39;;;;;;;25.30;14.77;;;;;;;;;;5102305;28;20036;-85
2021/08/23 00:28:08;;;;;;;22.27;14.20;;;;;;;;;;5103124;28;20408;-85
2021/08/23 00:30:35;;;;;;;23.67;15.13;;;;;;;;;;5103079;28;20515;-85
2021/08/23 00:33:02;;;;;;;21.23;14.88;;;;;;;;;;5102209;28;20142;-85
2021/08/23 00:35:29;;;;;;;23.10;14.25;;;;;;;;;;5102079;28;20328;-85
2021/08/23 00:37:56;;;;;;;23.52;14.52;;;;;;;;;;5104012;28;20108;-85
2021/08/23 00:40:23;;;;;;;24.35;15.10;;;;;;;;;;5103769;28;20151;-85
2021/08/23 00:42:51;;;;;;;19.02;13.07;;;;;;;;;;5105510;28;20044;-85
2021/08/23 00:45:19;;;;;;;20.27;13.25;;;;;;;;;;5106262;28;20059;-85
2021/08/23 00:47:45;;;;;;;25.15;12.73;;;;;;;;;;5103632;28;20415;-86
2021/08/23 00:50:13;;;;;;;23.45;13.30;;;;;;;;;;5102989;28;20503;-86
2021/08/23 00:52:40;;;;;;;22.77;12.32;;;;;;;;;;5103166;28;20048;-85
2021/08/23 00:55:06;;;;;;;21.13;14.15;;;;;;;;;;5102962;28;20066;-85
2021/08/23 00:57:33;;;;;;;23.83;12.73;;;;;;;;;;5103082;28;20048;-85
2021/08/23 01:00:00;;;;;;;18.75;13.15;;;;;;;;;;5100073;28;20523;-85
2021/08/23 01:02:32;;;;;;;24.67;12.52;;;;;;;;;;5102376;28;20082;-85
2021/08/23 01:05:04;;;;;;;23.23;12.65;;;;;;;;;;5101409;28;20202;-85
2021/08/23 01:07:33;;;;;;;23.15;13.02;;;;;;;;;;5102344;28;20087;-84
2021/08/23 01:10:07;;;;;;;22.98;13.00;;;;;;;;;;5091817;28;20113;-84
2021/08/23 01:12:34;;;;;;;20.95;12.35;;;;;;;;;;5101761;28;20148;-84
2021/08/23 01:15:01;;;;;;;19.33;12.95;;;;;;;;;;5102499;28;20047;-84
2021/08/23 01:17:27;;;;;;;24.60;13.20;;;;;;;;;;5108531;28;20056;-84
2021/08/23 01:19:56;;;;;;;23.70;13.18;;;;;;;;;;5113451;28;20068;-85
2021/08/23 01:22:23;;;;;;;22.08;14.45;;;;;;;;;;5116581;28;20048;-85
2021/08/23 01:24:52;;;;;;;22.38;14.05;;;;;;;;;;5112555;28;20078;-86
2021/08/23 01:27:20;;;;;;;22.50;13.60;;;;;;;;;;5105558;28;20052;-85
2021/08/23 01:29:49;;;;;;;25.85;13.20;;;;;;;;;;5112121;28;20066;-84
2021/08/23 01:32:22;;;;;;;24.58;14.40;;;;;;;;;;5112729;28;20051;-85
2021/08/23 01:34:49;;;;;;;22.42;13.70;;;;;;;;;;5113285;28;20032;-84
2021/08/23 01:37:16;;;;;;;27.30;14.18;;;;;;;;;;5118193;28;20036;-84
2021/08/23 01:39:43;;;;;;;29.92;14.07;;;;;;;;;;5115900;28;20157;-85
2021/08/23 01:42:10;;;;;;;26.02;16.27;;;;;;;;;;5105160;28;20127;-85
2021/08/23 01:44:36;;;;;;;22.75;13.77;;;;;;;;;;5102358;28;20091;-85
2021/08/23 01:47:03;;;;;;;26.13;15.45;;;;;;;;;;5100481;28;20048;-85
2021/08/23 01:49:36;;;;;;;23.45;14.57;;;;;;;;;;5100730;28;20044;-85
2021/08/23 01:52:03;;;;;;;29.73;16.08;;;;;;;;;;5100758;28;20071;-84
2021/08/23 01:54:29;;;;;;;29.27;16.25;;;;;;;;;;5102415;28;20072;-85
2021/08/23 01:56:56;;;;;;;28.27;15.50;;;;;;;;;;5102188;28;20044;-86
2021/08/23 01:59:24;;;;;;;29.27;17.05;;;;;;;;;;5102516;28;20138;-85
2021/08/23 02:01:50;;;;;;;33.90;17.67;;;;;;;;;;5101786;28;20043;-85
2021/08/23 02:04:17;;;;;;;31.88;17.98;;;;;;;;;;5104659;28;20120;-85
2021/08/23 02:06:49;;;;;;;30.55;17.83;;;;;;;;;;5114768;28;20056;-85
2021/08/23 02:09:16;;;;;;;32.05;17.27;;;;;;;;;;5111003;28;20067;-86
2021/08/23 02:11:42;;;;;;;33.38;18.73;;;;;;;;;;5099987;28;20051;-85
2021/08/23 02:14:08;;;;;;;32.22;17.67;;;;;;;;;;5099649;28;20147;-84
2021/08/23 02:16:41;;;;;;;30.02;17.70;;;;;;;;;;5096389;28;20079;-85
2021/08/23 02:19:09;;;;;;;30.15;17.77;;;;;;;;;;5082587;28;20116;-85
2021/08/23 02:21:45;;;;;;;34.92;17.75;;;;;;;;;;5099841;28;20420;-85
2021/08/23 02:24:12;;;;;;;29.02;17.38;;;;;;;;;;5100045;28;20399;-85
2021/08/23 02:26:38;;;;;;;26.67;16.38;;;;;;;;;;5132336;27;20255;-85
2021/08/23 02:29:05;;;;;;;29.15;17.92;;;;;;;;;;5099781;28;20363;-85
2021/08/23 02:31:31;;;;;;;32.55;16.75;;;;;;;;;;5099226;28;20052;-85
2021/08/23 02:33:58;;;;;;;29.92;17.42;;;;;;;;;;5100093;28;20048;-85
2021/08/23 02:36:25;;;;;;;35.40;18.38;;;;;;;;;;5100157;28;20199;-85
2021/08/23 02:38:51;;;;;;;31.73;16.70;;;;;;;;;;5099455;28;20083;-85
2021/08/23 02:41:18;;;;;;;26.88;16.63;;;;;;;;;;5100533;28;20074;-85
2021/08/23 02:43:45;;;;;;;38.22;16.60;;;;;;;;;;5115541;28;20426;-83
2021/08/23 02:46:11;;;;;;;31.45;17.08;;;;;;;;;;5115274;28;20059;-85
2021/08/23 02:48:38;;;;;;;31.55;18.00;;;;;;;;;;5105063;28;20087;-87
2021/08/23 02:51:04;;;;;;;33.85;15.80;;;;;;;;;;5102029;28;20102;-84
2021/08/23 02:53:31;;;;;;;30.42;16.75;;;;;;;;;;5083064;28;20110;-84
2021/08/23 02:55:57;;;;;;;32.58;16.30;;;;;;;;;;5081016;28;20078;-84
2021/08/23 02:58:24;;;;;;;29.65;16.00;;;;;;;;;;5085952;28;20351;-84
2021/08/23 03:00:50;;;;;;;31.17;15.35;;;;;;;;;;5102398;28;20064;-85
2021/08/23 03:03:18;;;;;;;27.75;16.23;;;;;;;;;;5114437;28;20044;-85
2021/08/23 03:05:47;;;;;;;27.45;16.08;;;;;;;;;;5113168;28;20062;-85
2021/08/23 03:08:13;;;;;;;30.23;15.60;;;;;;;;;;5100653;28;20099;-84
2021/08/23 03:10:41;;;;;;;26.00;15.75;;;;;;;;;;5104412;28;20217;-85
2021/08/23 03:13:10;;;;;;;27.25;14.85;;;;;;;;;;5114338;28;20067;-85
2021/08/23 03:15:39;;;;;;;28.75;16.48;;;;;;;;;;5113408;28;20032;-85
2021/08/23 03:18:08;;;;;;;28.27;15.55;;;;;;;;;;5090504;28;20082;-86
2021/08/23 03:20:35;;;;;;;25.98;16.55;;;;;;;;;;5100735;28;20052;-86
2021/08/23 03:23:08;;;;;;;28.98;15.70;;;;;;;;;;5100075;28;20048;-85
2021/08/23 03:25:34;;;;;;;27.25;16.15;;;;;;;;;;5100483;28;20101;-85
2021/08/23 03:28:00;;;;;;;30.65;16.30;;;;;;;;;;5099738;28;20083;-85
2021/08/23 03:30:39;;;;;;;27.70;15.30;;;;;;;;;;5098321;28;20415;-85
2021/08/23 03:33:07;;;;;;;30.98;16.60;;;;;;;;;;5097597;28;20066;-85
2021/08/23 03:35:36;;;;;;;27.20;16.45;;;;;;;;;;5098411;28;20048;-85
2021/08/23 03:38:03;;;;;;;26.52;15.57;;;;;;;;;;5099097;28;20435;-84
2021/08/23 03:40:30;;;;;;;28.38;16.08;;;;;;;;;;5098330;28;20060;-85
2021/08/23 03:42:56;;;;;;;25.83;16.00;;;;;;;;;;5096368;28;20051;-86
2021/08/23 03:45:23;;;;;;;32.40;17.55;;;;;;;;;;5098173;28;20107;-85
2021/08/23 03:47:55;;;;;;;27.35;16.98;;;;;;;;;;5098451;28;20040;-85
2021/08/23 03:50:22;;;;;;;29.20;16.52;;;;;;;;;;5097798;28;20048;-84
2021/08/23 03:52:48;;;;;;;27.55;16.50;;;;;;;;;;5097715;28;20048;-85
2021/08/23 03:55:18;;;;;;;27.02;15.95;;;;;;;;;;5097088;28;20355;-84
2021/08/23 03:57:46;;;;;;;30.40;15.15;;;;;;;;;;5096954;28;20382;-84
2021/08/23 04:00:12;;;;;;;28.08;16.38;;;;;;;;;;5095510;28;20080;-84
2021/08/23 04:02:39;;;;;;;27.77;15.13;;;;;;;;;;5104585;28;20044;-84
2021/08/23 04:05:12;;;;;;;35.17;17.08;;;;;;;;;;5110404;28;20048;-85
2021/08/23 04:07:39;;;;;;;31.55;17.17;;;;;;;;;;5104402;28;20102;-85
2021/08/23 04:10:07;;;;;;;26.27;16.15;;;;;;;;;;5099287;28;20118;-85
2021/08/23 04:12:40;;;;;;;28.08;15.95;;;;;;;;;;5097770;28;20150;-84
2021/08/23 04:15:07;;;;;;;34.05;15.95;;;;;;;;;;5096673;28;20048;-85
2021/08/23 04:17:33;;;;;;;30.10;16.38;;;;;;;;;;5096042;28;20072;-84
2021/08/23 04:20:03;;;;;;;30.13;16.67;;;;;;;;;;5097750;28;20404;-85
2021/08/23 04:22:30;;;;;;;28.77;16.25;;;;;;;;;;5096425;28;20058;-84
2021/08/23 04:24:56;;;;;;;28.20;16.33;;;;;;;;;;5096823;28;20127;-85
2021/08/23 04:27:26;;;;;;;30.02;16.23;;;;;;;;;;5095698;28;20338;-84
2021/08/23 04:29:53;;;;;;;22.88;14.55;;;;;;;;;;5094978;28;20048;-85
2021/08/23 04:32:19;;;;;;;28.70;17.23;;;;;;;;;;5096961;28;20135;-86
2021/08/23 04:34:45;;;;;;;29.73;15.93;;;;;;;;;;5098842;28;20087;-85
2021/08/23 04:37:15;;;;;;;28.88;16.10;;;;;;;;;;5097444;28;20139;-85
2021/08/23 04:39:42;;;;;;;27.48;15.98;;;;;;;;;;5097758;28;20056;-84
2021/08/23 04:42:08;;;;;;;30.42;16.42;;;;;;;;;;5097056;28;20052;-84
2021/08/23 04:44:36;;;;;;;30.58;17.45;;;;;;;;;;5099633;28;20554;-85
2021/08/23 04:47:03;;;;;;;30.15;16.90;;;;;;;;;;5111741;28;20051;-84
2021/08/23 04:49:29;;;;;;;25.40;16.23;;;;;;;;;;5110841;28;20063;-84
2021/08/23 04:52:08;;;;;;;22.85;15.13;;;;;;;;;;5106537;28;20048;-85
2021/08/23 04:54:36;;;;;;;30.02;16.08;;;;;;;;;;5100049;28;20144;-85
2021/08/23 04:57:03;;;;;;;29.63;17.10;;;;;;;;;;5099937;28;20182;-85
2021/08/23 04:59:30;;;;;;;38.95;16.85;;;;;;;;;;5095987;28;20071;-84
2021/08/23 05:01:57;;;;;;;28.40;15.77;;;;;;;;;;5099317;28;20322;-85
2021/08/23 05:04:23;;;;;;;30.10;14.63;;;;;;;;;;5133123;27;20412;-86
2021/08/23 05:06:54;;;;;;;30.33;14.70;;;;;;;;;;5097063;28;20048;-85
2021/08/23 05:09:21;;;;;;;27.38;14.05;;;;;;;;;;5099124;28;20044;-86
2021/08/23 05:11:48;;;;;;;27.38;13.63;;;;;;;;;;5107887;28;20056;-84
2021/08/23 05:14:17;;;;;;;25.33;12.50;;;;;;;;;;5109181;28;20109;-84
2021/08/23 05:16:47;;;;;;;17.00;11.30;;;;;;;;;;5112286;28;20031;-84
2021/08/23 05:19:13;;;;;;;16.25;10.90;;;;;;;;;;5112820;28;20056;-85
2021/08/23 05:21:40;;;;;;;13.57;9.13;;;;;;;;;;5104447;28;20080;-85
2021/08/23 05:24:06;;;;;;;20.02;9.00;;;;;;;;;;5113472;28;20065;-87
2021/08/23 05:26:33;;;;;;;12.05;7.97;;;;;;;;;;5126581;28;20051;-86
2021/08/23 05:28:59;;;;;;;15.02;8.93;;;;;;;;;;5120116;28;20135;-86
2021/08/23 05:31:25;;;;;;;13.52;7.65;;;;;;;;;;5122816;28;20082;-85
2021/08/23 05:33:58;;;;;;;12.90;7.63;;;;;;;;;;5120401;28;20116;-87
2021/08/23 05:36:25;;;;;;;14.50;7.30;;;;;;;;;;5118805;28;20250;-85
2021/08/23 05:38:51;;;;;;;12.55;7.65;;;;;;;;;;5117740;28;20093;-85
2021/08/23 05:41:18;;;;;;;15.82;7.05;;;;;;;;;;5117391;28;20052;-86
2021/08/23 05:43:44;;;;;;;12.52;7.65;;;;;;;;;;5104080;28;20087;-86
2021/08/23 05:46:15;;;;;;;13.27;6.50;;;;;;;;;;5076465;28;20100;-85
2021/08/23 05:48:45;;;;;;;10.45;6.28;;;;;;;;;;5079693;28;20067;-85
2021/08/23 05:51:14;;;;;;;14.85;6.43;;;;;;;;;;5095551;28;20106;-84
2021/08/23 05:53:41;;;;;;;14.25;6.78;;;;;;;;;;5095883;28;20134;-84
2021/08/23 05:56:14;;;;;;;11.30;6.93;;;;;;;;;;5094857;28;20147;-84
2021/08/23 05:58:45;;;;;;;8.95;6.43;;;;;;;;;;5094113;28;20549;-86
2021/08/23 06:01:12;;;;;;;11.27;5.47;;;;;;;;;;5093882;28;20055;-86
2021/08/23 06:03:38;;;;;;;10.93;5.97;;;;;;;;;;5128089;27;20117;-86
2021/08/23 06:06:05;;;;;;;13.10;6.03;;;;;;;;;;5095965;28;20070;-86
2021/08/23 06:08:33;;;;;;;13.70;5.68;;;;;;;;;;5097217;28;20443;-85
2021/08/23 06:11:02;;;;;;;11.75;5.53;;;;;;;;;;5108881;28;20117;-85
2021/08/23 06:13:35;;;;;;;11.95;5.50;;;;;;;;;;5111737;28;20055;-85
2021/08/23 06:16:01;;;;;;;8.05;4.53;;;;;;;;;;5112372;28;20056;-85
2021/08/23 06:18:28;;;;;;;9.27;5.18;;;;;;;;;;5118095;28;20470;-85
2021/08/23 06:20:54;;;;;;;10.80;4.50;;;;;;;;;;5123202;28;20092;-85
2021/08/23 06:23:27;;;;;;;6.65;4.72;;;;;;;;;;5089644;28;20057;-86
2021/08/23 06:25:54;;;;;;;7.88;4.43;;;;;;;;;;5087944;28;20246;-86
2021/08/23 06:28:22;;;;;;;11.82;4.47;;;;;;;;;;5078466;28;20045;-85
2021/08/23 06:30:54;;;;;;;13.70;4.40;;;;;;;;;;5077341;28;20432;-85
2021/08/23 06:33:21;;;;;;;10.15;4.68;;;;;;;;;;5076542;28;20056;-86
2021/08/23 06:35:47;;;;;;;8.60;4.43;;;;;;;;;;5076901;28;20087;-85
2021/08/23 06:38:14;;;;;;;9.60;4.30;;;;;;;;;;5075426;28;20056;-86
2021/08/23 06:40:41;;;;;;;7.13;3.70;;;;;;;;;;5078083;28;20106;-86
2021/08/23 06:43:07;;;;;;;7.95;3.42;;;;;;;;;;5077226;28;20098;-85
2021/08/23 06:45:37;;;;;;;9.50;4.35;;;;;;;;;;5080737;28;20091;-85
2021/08/23 06:48:04;;;;;;;7.22;4.13;;;;;;;;;;5088481;28;20172;-86
2021/08/23 06:50:30;;;;;;;9.13;4.15;;;;;;;;;;5086197;28;20048;-86
2021/08/23 06:52:56;;;;;;;7.88;4.25;;;;;;;;;;5073798;28;20110;-86
2021/08/23 06:55:23;;;;;;;13.52;4.28;;;;;;;;;;5074941;28;20135;-86
2021/08/23 06:57:49;;;;;;;5.43;3.20;;;;;;;;;;5074143;28;20337;-86
2021/08/23 07:00:17;;;;;;;6.38;3.55;;;;;;;;;;5074841;28;20109;-85
2021/08/23 07:02:43;;;;;;;8.20;3.15;;;;;;;;;;5074505;28;20041;-86
2021/08/23 07:05:19;;;;;;;7.43;3.15;;;;;;;;;;5074537;28;20329;-86
2021/08/23 07:07:46;;;;;;;6.20;3.10;;;;;;;;;;5072635;28;20314;-86
2021/08/23 07:10:13;;;;;;;8.35;3.00;;;;;;;;;;5074806;28;20072;-86
2021/08/23 07:12:40;;;;;;;8.88;2.60;;;;;;;;;;5074483;28;20306;-85
2021/08/23 07:15:12;;;;;;;8.68;2.85;;;;;;;;;;5075453;28;20060;-85
2021/08/23 07:17:39;;;;;;;7.95;3.08;;;;;;;;;;5077329;28;20052;-85
2021/08/23 07:20:05;;;;;;;7.63;2.80;;;;;;;;;;5090900;28;20339;-86
2021/08/23 07:22:35;;;;;;;8.45;3.47;;;;;;;;;;5092859;28;20139;-86
2021/08/23 07:25:02;;;;;;;8.65;3.25;;;;;;;;;;5127758;27;20044;-86
2021/08/23 07:27:28;;;;;;;6.43;2.85;;;;;;;;;;5098125;28;20046;-85
2021/08/23 07:29:55;;;;;;;5.93;3.03;;;;;;;;;;5147862;27;20117;-86
2021/08/23 07:32:22;;;;;;;8.50;3.28;;;;;;;;;;5114171;28;20055;-86
2021/08/23 07:34:48;;;;;;;9.70;3.00;;;;;;;;;;5113019;28;20078;-86
2021/08/23 07:37:18;;;;;;;7.78;2.97;;;;;;;;;;5102116;28;20101;-86
2021/08/23 07:39:45;;;;;;;9.18;2.58;;;;;;;;;;5092249;28;20179;-86
2021/08/23 07:42:12;;;;;;;9.43;2.70;;;;;;;;;;5092921;28;20220;-86
2021/08/23 07:44:39;;;;;;;6.05;2.70;;;;;;;;;;5094376;28;20048;-85
2021/08/23 07:47:06;;;;;;;8.75;2.10;;;;;;;;;;5094690;28;20328;-86
2021/08/23 07:49:33;;;;;;;7.95;2.50;;;;;;;;;;5094557;28;20674;-86
2021/08/23 07:52:00;;;;;;;4.38;2.40;;;;;;;;;;5094245;28;20593;-85
2021/08/23 07:54:26;;;;;;;7.28;2.45;;;;;;;;;;5095411;28;20047;-85
2021/08/23 07:56:57;;;;;;;6.00;2.40;;;;;;;;;;5100900;28;20054;-87
2021/08/23 07:59:26;;;;;;;6.80;2.40;;;;;;;;;;5108139;28;20046;-86
2021/08/23 08:02:01;;;;;;;5.53;2.20;;;;;;;;;;5106711;28;20036;-87
2021/08/23 08:04:29;;;;;;;6.78;2.03;;;;;;;;;;5102757;28;20095;-86
2021/08/23 08:06:56;;;;;;;7.68;2.10;;;;;;;;;;5107725;28;20054;-86
2021/08/23 08:09:23;;;;;;;5.55;2.17;;;;;;;;;;5103855;28;20074;-86
2021/08/23 08:12:06;;;;;;;6.60;1.90;;;;;;;;;;5092182;28;20044;-87
2021/08/23 08:14:32;;;;;;;4.90;1.92;;;;;;;;;;5093911;28;20086;-86
2021/08/23 08:16:59;;;;;;;8.23;2.60;;;;;;;;;;5094066;28;20119;-85
2021/08/23 08:19:26;;;;;;;4.95;2.13;;;;;;;;;;5094164;28;20424;-86
2021/08/23 08:21:53;;;;;;;8.05;2.10;;;;;;;;;;5078917;28;20060;-87
2021/08/23 08:24:19;;;;;;;3.20;1.60;;;;;;;;;;5079056;28;20086;-87
2021/08/23 08:26:49;;;;;;;8.27;2.00;;;;;;;;;;5107923;28;20078;-87
2021/08/23 08:29:15;;;;;;;10.07;3.10;;;;;;;;;;5111856;28;20036;-87
2021/08/23 08:31:42;;;;;;;5.55;2.00;;;;;;;;;;5095996;28;20048;-86
2021/08/23 08:34:09;;;;;;;3.85;1.90;;;;;;;;;;5094653;28;20079;-86
2021/08/23 08:36:35;;;;;;;5.70;1.92;;;;;;;;;;5097195;28;20114;-87
2021/08/23 08:39:02;;;;;;;9.98;1.92;;;;;;;;;;5107738;28;20035;-87
2021/08/23 08:41:30;;;;;;;4.55;1.80;;;;;;;;;;5108294;28;20032;-86
2021/08/23 08:43:57;;;;;;;4.68;1.88;;;;;;;;;;5109736;28;20052;-86
2021/08/23 08:46:24;;;;;;;2.80;1.40;;;;;;;;;;5105702;28;20268;-87
2021/08/23 08:48:51;;;;;;;5.22;1.85;;;;;;;;;;5094126;28;20075;-86
2021/08/23 08:51:18;;;;;;;7.70;1.40;;;;;;;;;;5095722;28;20055;-87
2021/08/23 08:53:45;;;;;;;5.38;1.77;;;;;;;;;;5095863;28;20212;-87
2021/08/23 08:56:11;;;;;;;7.07;1.80;;;;;;;;;;5103427;28;20047;-87
2021/08/23 08:58:41;;;;;;;6.93;1.77;;;;;;;;;;5102442;28;20221;-87
2021/08/23 09:01:07;;;;;;;3.50;1.40;;;;;;;;;;5096942;28;20074;-87
2021/08/23 09:03:34;;;;;;;4.70;1.50;;;;;;;;;;5094838;28;20142;-87
2021/08/23 09:06:02;;;;;;;4.68;1.63;;;;;;;;;;5095786;28;20055;-86
2021/08/23 09:08:29;;;;;;;3.63;1.35;;;;;;;;;;5088495;28;20115;-87
2021/08/23 09:11:11;;;;;;;3.67;1.60;;;;;;;;;;5075397;28;20064;-87
2021/08/23 09:14:04;;;;;;;5.13;1.77;;;;;;;;;;5077333;28;20044;-87
2021/08/23 09:16:32;;;;;;;3.58;1.35;;;;;;;;;;5077196;28;20040;-87
2021/08/23 09:18:59;;;;;;;4.28;1.65;;;;;;;;;;5079428;28;20325;-87
2021/08/23 09:21:39;;;;;;;4.90;1.63;;;;;;;;;;5095127;28;20079;-87
2021/08/23 09:24:06;;;;;;;2.60;1.55;;;;;;;;;;5110239;28;20040;-87
2021/08/23 09:26:33;;;;;;;4.95;1.80;;;;;;;;;;5109406;28;20051;-87
2021/08/23 09:29:06;;;;;;;4.30;1.40;;;;;;;;;;5096429;28;20087;-87
2021/08/23 09:31:37;;;;;;;5.18;1.02;;;;;;;;;;5088803;28;20043;-87
2021/08/23 09:34:05;;;;;;;6.70;1.50;;;;;;;;;;5088751;28;20050;-87
2021/08/23 09:36:32;;;;;;;3.15;1.25;;;;;;;;;;5098625;28;20058;-88
2021/08/23 09:39:15;;;;;;;4.45;1.67;;;;;;;;;;5118112;28;20125;-87
2021/08/23 09:41:42;;;;;;;2.50;1.30;;;;;;;;;;5107947;28;20250;-86
2021/08/23 09:44:13;;;;;;;6.05;1.50;;;;;;;;;;5091410;28;20044;-87
2021/08/23 09:46:41;;;;;;;4.78;1.45;;;;;;;;;;5088909;28;20643;-87
2021/08/23 09:49:10;;;;;;;2.08;1.02;;;;;;;;;;5092093;28;20047;-87
2021/08/23 09:51:39;;;;;;;6.22;1.30;;;;;;;;;;5090642;28;20105;-88
2021/08/23 09:54:19;;;;;;;2.72;0.90;;;;;;;;;;5087031;28;20233;-87
2021/08/23 09:56:46;;;;;;;5.40;1.20;;;;;;;;;;5088399;28;20384;-87
2021/08/23 09:59:14;;;;;;;5.40;1.30;;;;;;;;;;5091494;28;20219;-87
2021/08/23 10:01:41;;;;;;;3.55;1.25;;;;;;;;;;5089249;28;20043;-87
2021/08/23 10:04:09;;;;;;;4.10;1.10;;;;;;;;;;5094918;28;20044;-87
2021/08/23 10:06:36;;;;;;;2.13;1.17;;;;;;;;;;5092343;28;20066;-88
2021/08/23 10:09:04;;;;;;;4.88;1.50;;;;;;;;;;5091311;28;20044;-88
2021/08/23 10:11:32;;;;;;;5.45;1.38;;;;;;;;;;5091459;28;20210;-88
2021/08/23 10:13:59;;;;;;;3.03;1.33;;;;;;;;;;5089546;28;20170;-86
2021/08/23 10:16:28;;;;;;;4.90;1.10;;;;;;;;;;5092431;28;20047;-87
2021/08/23 10:18:54;;;;;;;2.85;0.93;;;;;;;;;;5091826;28;20389;-87
2021/08/23 10:21:21;;;;;;;1.77;0.93;;;;;;;;;;5094930;28;20105;-87
2021/08/23 10:23:48;;;;;;;4.03;1.23;;;;;;;;;;5094653;28;20480;-85
2021/08/23 10:26:15;;;;;;;4.88;1.05;;;;;;;;;;5091218;28;20044;-86
2021/08/23 10:28:47;;;;;;;2.70;1.00;;;;;;;;;;5091802;28;20109;-87
2021/08/23 10:31:15;;;;;;;4.95;1.10;;;;;;;;;;5091721;28;20048;-87
2021/08/23 10:33:47;;;;;;;5.65;1.25;;;;;;;;;;5092982;28;20146;-86
2021/08/23 10:36:18;;;;;;;3.22;1.05;;;;;;;;;;5092796;28;20210;-86
2021/08/23 10:38:46;;;;;;;5.85;1.55;;;;;;;;;;5093515;28;20051;-87
2021/08/23 10:41:17;;;;;;;4.85;1.10;;;;;;;;;;5093389;28;20090;-87
2021/08/23 10:43:56;;;;;;;3.70;1.35;;;;;;;;;;5098470;28;20101;-86
2021/08/23 10:46:22;;;;;;;2.53;0.98;;;;;;;;;;5109456;28;20093;-87
2021/08/23 10:48:50;;;;;;;3.03;0.90;;;;;;;;;;5106717;28;20116;-86
2021/08/23 10:51:30;;;;;;;2.45;1.02;;;;;;;;;;5094852;28;20557;-86
2021/08/23 10:53:57;;;;;;;7.13;1.40;;;;;;;;;;5093569;28;20060;-88
2021/08/23 10:56:32;;;;;;;2.38;1.10;;;;;;;;;;5085621;28;20176;-86
2021/08/23 10:59:10;;;;;;;6.53;0.90;;;;;;;;;;5074246;28;20428;-86
2021/08/23 11:01:36;;;;;;;3.22;1.00;;;;;;;;;;5079930;28;20120;-87
2021/08/23 11:04:07;;;;;;;1.95;1.00;;;;;;;;;;5087609;28;20044;-85
2021/08/23 11:06:37;;;;;;;3.05;0.95;;;;;;;;;;5105281;28;20051;-86
2021/08/23 11:09:13;;;;;;;2.50;1.08;;;;;;;;;;5095013;28;20211;-87
2021/08/23 11:11:40;;;;;;;5.88;1.02;;;;;;;;;;5093582;28;20072;-87
2021/08/23 11:14:19;;;;;;;3.50;1.10;;;;;;;;;;5093330;28;20109;-87
2021/08/23 11:16:50;;;;;;;2.72;0.98;;;;;;;;;;5093407;28;20044;-87
2021/08/23 11:19:18;;;;;;;3.15;0.90;;;;;;;;;;5094424;28;20348;-87
2021/08/23 11:21:47;;;;;;;3.33;0.90;;;;;;;;;;5095771;28;20097;-88
2021/08/23 11:24:17;;;;;;;3.42;0.93;;;;;;;;;;5095635;28;20307;-87
2021/08/23 11:26:52;;;;;;;2.65;1.08;;;;;;;;;;5098208;28;20044;-85
2021/08/23 11:29:43;;;;;;;4.97;0.95;;;;;;;;;;5099863;28;20048;-87
2021/08/23 11:32:10;;;;;;;1.90;0.90;;;;;;;;;;5088406;28;20044;-87
2021/08/23 11:34:36;;;;;;;3.72;1.15;;;;;;;;;;5096240;28;20036;-87
2021/08/23 11:37:15;;;;;;;6.95;1.00;;;;;;;;;;5097273;28;20041;-88
2021/08/23 11:39:41;;;;;;;3.40;0.75;;;;;;;;;;5104747;28;20047;-88
2021/08/23 11:42:08;;;;;;;4.22;0.90;;;;;;;;;;5101634;28;20113;-87
2021/08/23 11:44:39;;;;;;;3.50;0.85;;;;;;;;;;5090158;28;20044;-88
2021/08/23 11:47:07;;;;;;;1.70;0.82;;;;;;;;;;5074148;28;20048;-87
2021/08/23 11:49:34;;;;;;;2.15;0.80;;;;;;;;;;5098187;28;20049;-86
2021/08/23 11:52:17;;;;;;;3.38;0.98;;;;;;;;;;5075878;28;20052;-87
2021/08/23 11:54:47;;;;;;;3.25;0.98;;;;;;;;;;5075786;28;20126;-87
2021/08/23 11:57:17;;;;;;;2.55;1.10;;;;;;;;;;5077269;28;20206;-87
2021/08/23 12:00:00;;;;;;;2.90;1.20;;;;;;;;;;5075683;28;20053;-87
2021/08/23 12:02:28;;;;;;;5.47;1.27;;;;;;;;;;5074257;28;20057;-87
2021/08/23 12:05:08;;;;;;;4.53;1.25;;;;;;;;;;5082587;28;20253;-87
2021/08/23 12:07:44;;;;;;;4.45;1.27;;;;;;;;;;5103288;28;20201;-87
2021/08/23 12:10:40;;;;;;;2.35;1.10;;;;;;;;;;5098910;28;20075;-87
2021/08/23 12:13:15;;;;;;;2.83;1.30;;;;;;;;;;5081011;28;20125;-86
2021/08/23 12:15:53;;;;;;;2.55;1.20;;;;;;;;;;5089396;28;20229;-87
2021/08/23 12:18:34;;;;;;;3.05;1.30;;;;;;;;;;5087030;28;20116;-87
2021/08/23 12:21:05;;;;;;;4.35;1.55;;;;;;;;;;5080727;28;20225;-86
2021/08/23 12:23:48;;;;;;;3.25;1.17;;;;;;;;;;5095680;28;20105;-87
2021/08/23 12:26:16;;;;;;;2.33;1.60;;;;;;;;;;5092520;28;20040;-86
2021/08/23 12:28:49;;;;;;;4.93;1.48;;;;;;;;;;5104705;28;20032;-86
2021/08/23 12:31:17;;;;;;;3.42;1.60;;;;;;;;;;5138957;27;20104;-88
2021/08/23 12:33:47;;;;;;;7.30;1.80;;;;;;;;;;5086022;28;20275;-88
2021/08/23 12:36:16;;;;;;;4.93;2.42;;;;;;;;;;5083681;28;20102;-86
2021/08/23 12:38:44;;;;;;;4.03;2.40;;;;;;;;;;5135130;27;20036;-87
2021/08/23 12:41:11;;;;;;;4.18;1.88;;;;;;;;;;5104026;28;20036;-88
2021/08/23 12:43:38;;;;;;;2.75;1.70;;;;;;;;;;5101824;28;20048;-87
2021/08/23 12:46:05;;;;;;;5.85;1.90;;;;;;;;;;5099214;28;20032;-87
2021/08/23 12:48:32;;;;;;;4.65;2.17;;;;;;;;;;5092329;28;20052;-88
2021/08/23 12:51:04;;;;;;;3.28;1.63;;;;;;;;;;5092785;28;20048;-87
2021/08/23 12:53:30;;;;;;;5.03;2.17;;;;;;;;;;5097050;28;20089;-86
2021/08/23 12:55:57;;;;;;;5.72;1.70;;;;;;;;;;5113116;28;20065;-85
2021/08/23 12:58:26;;;;;;;5.32;1.75;;;;;;;;;;5112423;28;20390;-87
2021/08/23 13:00:53;;;;;;;3.80;1.83;;;;;;;;;;5112733;28;20112;-86
2021/08/23 13:03:20;;;;;;;5.00;1.90;;;;;;;;;;5113450;28;20120;-85
2021/08/23 13:05:47;;;;;;;3.42;1.77;;;;;;;;;;5104403;28;20048;-86
2021/08/23 13:08:14;;;;;;;3.88;2.08;;;;;;;;;;5103773;28;20368;-86
2021/08/23 13:10:43;;;;;;;3.80;1.70;;;;;;;;;;5106309;28;20072;-85
2021/08/23 13:13:54;;;;;;;4.10;1.83;;;;;;;;;;5108135;28;20211;-85
2021/08/23 13:16:22;;;;;;;3.83;2.00;;;;;;;;;;5092048;28;20067;-84
2021/08/23 13:18:49;;;;;;;7.45;2.13;;;;;;;;;;5098841;28;20420;-84
2021/08/23 13:21:24;;;;;;;8.85;2.42;;;;;;;;;;5096160;28;20044;-85
2021/08/23 13:23:51;;;;;;;3.00;1.60;;;;;;;;;;5091435;28;20294;-86
2021/08/23 13:26:22;;;;;;;9.00;2.08;;;;;;;;;;5094963;28;20094;-85
2021/08/23 13:28:49;;;;;;;3.45;1.80;;;;;;;;;;5090849;28;20044;-86
2021/08/23 13:31:17;;;;;;;4.05;2.17;;;;;;;;;;5090295;28;20075;-85
2021/08/23 13:33:44;;;;;;;3.60;1.63;;;;;;;;;;5085797;28;20173;-85
2021/08/23 13:36:10;;;;;;;3.30;1.70;;;;;;;;;;5095280;28;20300;-84
2021/08/23 13:38:37;;;;;;;3.08;1.52;;;;;;;;;;5092231;28;20048;-85
2021/08/23 13:41:03;;;;;;;3.65;1.90;;;;;;;;;;5092411;28;20084;-84
2021/08/23 13:43:29;;;;;;;4.53;1.60;;;;;;;;;;5093112;28;20117;-84
2021/08/23 13:45:56;;;;;;;6.03;1.63;;;;;;;;;;5102144;28;20032;-85
2021/08/23 13:48:23;;;;;;;4.13;1.45;;;;;;;;;;5106940;28;20103;-85
2021/08/23 13:50:49;;;;;;;3.75;1.70;;;;;;;;;;5101144;28;20105;-86
2021/08/23 13:53:16;;;;;;;3.15;1.42;;;;;;;;;;5089479;28;20109;-85
2021/08/23 13:55:42;;;;;;;4.20;1.30;;;;;;;;;;5101889;28;20048;-85
2021/08/23 13:58:09;;;;;;;3.65;1.50;;;;;;;;;;5090908;28;20108;-85
2021/08/23 14:00:57;;;;;;;7.03;1.50;;;;;;;;;;5113946;27;20226;-85
2021/08/23 14:03:25;;;;;;;2.53;1.13;;;;;;;;;;5094377;28;20036;-85
2021/08/23 14:05:52;;;;;;;1.95;1.23;;;;;;;;;;5123984;28;20119;-85
2021/08/23 14:08:18;;;;;;;4.28;2.05;;;;;;;;;;5104532;28;20050;-85
2021/08/23 14:10:45;;;;;;;4.68;2.00;;;;;;;;;;5092482;28;20052;-85
2021/08/23 14:13:12;;;;;;;2.83;1.20;;;;;;;;;;5089133;28;20459;-85
2021/08/23 14:15:39;;;;;;;2.92;1.52;;;;;;;;;;5083948;28;20041;-85
2021/08/23 14:18:06;;;;;;;3.05;1.30;;;;;;;;;;5088977;28;20105;-85
2021/08/23 14:20:33;;;;;;;3.00;1.10;;;;;;;;;;5074900;28;20387;-85
2021/08/23 14:23:00;;;;;;;3.28;1.40;;;;;;;;;;5087847;28;20039;-85
2021/08/23 14:25:27;;;;;;;3.00;1.40;;;;;;;;;;5086505;28;20428;-85
2021/08/23 14:27:54;;;;;;;3.30;1.13;;;;;;;;;;5088410;28;20061;-86
2021/08/23 14:30:20;;;;;;;5.82;1.40;;;;;;;;;;5083780;28;20101;-86
2021/08/23 14:32:47;;;;;;;4.38;1.30;;;;;;;;;;5087312;28;20284;-85
2021/08/23 14:35:14;;;;;;;5.97;1.50;;;;;;;;;;5109116;27;20296;-85
2021/08/23 14:37:40;;;;;;;4.78;1.27;;;;;;;;;;5071255;28;20075;-85
2021/08/23 14:40:09;;;;;;;3.30;1.30;;;;;;;;;;5069284;28;20345;-85
2021/08/23 14:42:36;;;;;;;2.45;1.33;;;;;;;;;;5070683;28;20155;-85